sensor_id;sensor_type;location;lat;lon;timestamp;temperature;humidity
23751;DHT22;12055;52.098;13.176;2022-07-29T00:02:24;11.60;99.90
23751;DHT22;12055;52.098;13.176;2022-07-29T00:04:50;11.60;99.90
23751;DHT22;12055;52.098;13.176;2022-07-29T00:07:15;11.60;99.90
23751;DHT22;12055;52.098;13.176;2022-07-29T00:09:41;11.60;99.90
23751;DHT22;12055;52.098;13.176;2022-07-29T00:12:06;11.50;99.90
23751;DHT22;12055;52.098;13.176;2022-07-29T00:14:32;11.50;99.90
23751;DHT22;12055;52.098;13.176;2022-07-29T00:16:57;11.50;99.90
23751;DHT22;12055;52.098;13.176;2022-07-29T00:19:23;11.50;99.90
23751;DHT22;12055;52.098;13.176;2022-07-29T00:21:48;11.50;99.90
23751;DHT22;12055;52.098;13.176;2022-07-29T00:24:14;11.50;99.90
23751;DHT22;12055;52.098;13.176;2022-07-29T00:26:39;11.50;99.90
23751;DHT22;12055;52.098;13.176;2022-07-29T00:29:05;11.40;99.90
23751;DHT22;12055;52.098;13.176;2022-07-29T00:31:30;11.40;99.90
23751;DHT22;12055;52.098;13.176;2022-07-29T00:33:56;11.40;99.90
23751;DHT22;12055;52.098;13.176;2022-07-29T00:36:22;11.40;99.90
23751;DHT22;12055;52.098;13.176;2022-07-29T00:38:49;11.30;99.90
23751;DHT22;12055;52.098;13.176;2022-07-29T00:41:15;11.30;99.90
23751;DHT22;12055;52.098;13.176;2022-07-29T00:43:41;11.30;99.90
23751;DHT22;12055;52.098;13.176;2022-07-29T00:46:06;11.30;99.90
23751;DHT22;12055;52.098;13.176;2022-07-29T00:48:32;11.20;99.90
23751;DHT22;12055;52.098;13.176;2022-07-29T00:50:58;11.20;99.90
23751;DHT22;12055;52.098;13.176;2022-07-29T00:53:25;11.10;99.90
23751;DHT22;12055;52.098;13.176;2022-07-29T00:55:50;11.10;99.90
23751;DHT22;12055;52.098;13.176;2022-07-29T00:58:16;11.10;99.90
23751;DHT22;12055;52.098;13.176;2022-07-29T01:00:42;11.00;99.90
23751;DHT22;12055;52.098;13.176;2022-07-29T01:03:08;11.00;99.90
23751;DHT22;12055;52.098;13.176;2022-07-29T01:05:34;11.00;99.90
23751;DHT22;12055;52.098;13.176;2022-07-29T01:08:01;11.00;99.90
23751;DHT22;12055;52.098;13.176;2022-07-29T01:10:27;11.00;99.90
23751;DHT22;12055;52.098;13.176;2022-07-29T01:12:54;10.90;99.90
23751;DHT22;12055;52.098;13.176;2022-07-29T01:15:21;10.90;99.90
23751;DHT22;12055;52.098;13.176;2022-07-29T01:18:07;10.90;99.90
23751;DHT22;12055;52.098;13.176;2022-07-29T01:21:04;10.90;99.90
23751;DHT22;12055;52.098;13.176;2022-07-29T01:26:47;10.80;99.90
23751;DHT22;12055;52.098;13.176;2022-07-29T01:29:37;10.80;99.90
23751;DHT22;12055;52.098;13.176;2022-07-29T01:32:10;10.80;99.90
23751;DHT22;12055;52.098;13.176;2022-07-29T01:34:59;10.80;99.90
23751;DHT22;12055;52.098;13.176;2022-07-29T01:37:36;10.70;99.90
23751;DHT22;12055;52.098;13.176;2022-07-29T01:40:05;10.70;99.90
23751;DHT22;12055;52.098;13.176;2022-07-29T01:42:43;10.70;99.90
23751;DHT22;12055;52.098;13.176;2022-07-29T01:45:28;10.70;99.90
23751;DHT22;12055;52.098;13.176;2022-07-29T01:48:24;10.70;99.90
23751;DHT22;12055;52.098;13.176;2022-07-29T01:50:58;10.70;99.90
23751;DHT22;12055;52.098;13.176;2022-07-29T01:53:47;10.70;99.90
23751;DHT22;12055;52.098;13.176;2022-07-29T01:56:17;10.70;99.90
23751;DHT22;12055;52.098;13.176;2022-07-29T01:58:44;10.70;99.90
23751;DHT22;12055;52.098;13.176;2022-07-29T02:01:11;10.70;99.90
23751;DHT22;12055;52.098;13.176;2022-07-29T02:03:38;10.60;99.90
23751;DHT22;12055;52.098;13.176;2022-07-29T02:06:04;10.60;99.90
23751;DHT22;12055;52.098;13.176;2022-07-29T02:08:32;10.70;99.90
23751;DHT22;12055;52.098;13.176;2022-07-29T02:11:00;10.60;99.90
23751;DHT22;12055;52.098;13.176;2022-07-29T02:13:27;10.70;99.90
23751;DHT22;12055;52.098;13.176;2022-07-29T02:15:55;10.70;99.90
23751;DHT22;12055;52.098;13.176;2022-07-29T02:18:22;10.70;99.90
23751;DHT22;12055;52.098;13.176;2022-07-29T02:20:52;10.80;99.90
23751;DHT22;12055;52.098;13.176;2022-07-29T02:23:22;10.80;99.90
23751;DHT22;12055;52.098;13.176;2022-07-29T02:25:49;10.80;99.90
23751;DHT22;12055;52.098;13.176;2022-07-29T02:28:17;10.90;99.90
23751;DHT22;12055;52.098;13.176;2022-07-29T02:30:45;10.90;99.90
23751;DHT22;12055;52.098;13.176;2022-07-29T02:33:13;10.90;99.90
23751;DHT22;12055;52.098;13.176;2022-07-29T02:35:40;11.00;99.90
23751;DHT22;12055;52.098;13.176;2022-07-29T02:38:09;11.00;99.90
23751;DHT22;12055;52.098;13.176;2022-07-29T02:40:53;11.00;99.90
23751;DHT22;12055;52.098;13.176;2022-07-29T02:43:21;11.10;99.90
23751;DHT22;12055;52.098;13.176;2022-07-29T02:45:51;11.10;99.90
23751;DHT22;12055;52.098;13.176;2022-07-29T02:48:22;11.10;99.90
23751;DHT22;12055;52.098;13.176;2022-07-29T02:51:01;11.10;99.90
23751;DHT22;12055;52.098;13.176;2022-07-29T02:53:33;11.10;99.90
23751;DHT22;12055;52.098;13.176;2022-07-29T02:56:03;11.10;99.90
23751;DHT22;12055;52.098;13.176;2022-07-29T02:58:33;11.10;99.90
23751;DHT22;12055;52.098;13.176;2022-07-29T03:01:04;11.10;99.90
23751;DHT22;12055;52.098;13.176;2022-07-29T03:03:36;11.10;99.90
23751;DHT22;12055;52.098;13.176;2022-07-29T03:06:02;11.10;99.90
23751;DHT22;12055;52.098;13.176;2022-07-29T03:08:28;11.10;99.90
23751;DHT22;12055;52.098;13.176;2022-07-29T03:10:55;11.10;99.90
23751;DHT22;12055;52.098;13.176;2022-07-29T03:13:21;11.10;99.90
23751;DHT22;12055;52.098;13.176;2022-07-29T03:15:47;11.10;99.90
23751;DHT22;12055;52.098;13.176;2022-07-29T03:18:13;11.10;99.90
23751;DHT22;12055;52.098;13.176;2022-07-29T03:20:39;11.20;99.90
23751;DHT22;12055;52.098;13.176;2022-07-29T03:23:06;11.30;99.90
23751;DHT22;12055;52.098;13.176;2022-07-29T03:25:32;11.30;99.90
23751;DHT22;12055;52.098;13.176;2022-07-29T03:27:58;11.30;99.90
23751;DHT22;12055;52.098;13.176;2022-07-29T03:30:24;11.30;99.90
23751;DHT22;12055;52.098;13.176;2022-07-29T03:32:51;11.40;99.90
23751;DHT22;12055;52.098;13.176;2022-07-29T03:35:17;11.40;99.90
23751;DHT22;12055;52.098;13.176;2022-07-29T03:37:43;11.50;99.90
23751;DHT22;12055;52.098;13.176;2022-07-29T03:40:11;11.50;99.90
23751;DHT22;12055;52.098;13.176;2022-07-29T03:42:40;11.60;99.90
23751;DHT22;12055;52.098;13.176;2022-07-29T03:45:17;11.60;99.90
23751;DHT22;12055;52.098;13.176;2022-07-29T03:47:48;11.70;99.90
23751;DHT22;12055;52.098;13.176;2022-07-29T03:50:16;11.80;99.90
23751;DHT22;12055;52.098;13.176;2022-07-29T03:52:42;11.90;99.90
23751;DHT22;12055;52.098;13.176;2022-07-29T03:55:09;11.90;99.90
23751;DHT22;12055;52.098;13.176;2022-07-29T03:57:35;12.00;99.90
23751;DHT22;12055;52.098;13.176;2022-07-29T04:00:02;12.10;99.90
23751;DHT22;12055;52.098;13.176;2022-07-29T04:02:28;12.20;99.90
23751;DHT22;12055;52.098;13.176;2022-07-29T04:04:54;12.20;99.90
23751;DHT22;12055;52.098;13.176;2022-07-29T04:07:20;12.30;99.90
23751;DHT22;12055;52.098;13.176;2022-07-29T04:09:46;12.40;99.90
23751;DHT22;12055;52.098;13.176;2022-07-29T04:12:11;12.40;99.90
23751;DHT22;12055;52.098;13.176;2022-07-29T04:14:37;12.50;99.90
23751;DHT22;12055;52.098;13.176;2022-07-29T04:17:03;12.50;99.90
23751;DHT22;12055;52.098;13.176;2022-07-29T04:19:29;12.60;99.90
23751;DHT22;12055;52.098;13.176;2022-07-29T04:21:56;12.60;99.90
23751;DHT22;12055;52.098;13.176;2022-07-29T04:24:21;12.70;99.90
23751;DHT22;12055;52.098;13.176;2022-07-29T04:26:47;12.70;99.90
23751;DHT22;12055;52.098;13.176;2022-07-29T04:29:13;12.80;99.90
23751;DHT22;12055;52.098;13.176;2022-07-29T04:31:40;12.80;99.90
23751;DHT22;12055;52.098;13.176;2022-07-29T04:34:05;12.80;99.90
23751;DHT22;12055;52.098;13.176;2022-07-29T04:36:31;12.80;99.90
23751;DHT22;12055;52.098;13.176;2022-07-29T04:38:57;12.90;99.90
23751;DHT22;12055;52.098;13.176;2022-07-29T04:41:23;12.90;99.90
23751;DHT22;12055;52.098;13.176;2022-07-29T04:43:48;13.00;99.90
23751;DHT22;12055;52.098;13.176;2022-07-29T04:46:14;13.00;99.90
23751;DHT22;12055;52.098;13.176;2022-07-29T04:48:39;13.10;99.90
23751;DHT22;12055;52.098;13.176;2022-07-29T04:51:04;13.20;99.90
23751;DHT22;12055;52.098;13.176;2022-07-29T04:53:30;13.20;99.90
23751;DHT22;12055;52.098;13.176;2022-07-29T04:55:55;13.20;99.90
23751;DHT22;12055;52.098;13.176;2022-07-29T04:58:21;13.30;99.90
23751;DHT22;12055;52.098;13.176;2022-07-29T05:00:49;13.50;99.90
23751;DHT22;12055;52.098;13.176;2022-07-29T05:03:14;13.60;99.90
23751;DHT22;12055;52.098;13.176;2022-07-29T05:05:40;13.70;99.90
23751;DHT22;12055;52.098;13.176;2022-07-29T05:08:06;13.80;99.90
23751;DHT22;12055;52.098;13.176;2022-07-29T05:10:31;13.90;99.90
23751;DHT22;12055;52.098;13.176;2022-07-29T05:12:57;14.20;99.90
23751;DHT22;12055;52.098;13.176;2022-07-29T05:15:23;14.40;99.90
23751;DHT22;12055;52.098;13.176;2022-07-29T05:17:48;14.50;99.90
23751;DHT22;12055;52.098;13.176;2022-07-29T05:20:14;14.70;99.90
23751;DHT22;12055;52.098;13.176;2022-07-29T05:22:39;14.90;99.90
23751;DHT22;12055;52.098;13.176;2022-07-29T05:25:05;15.10;99.90
23751;DHT22;12055;52.098;13.176;2022-07-29T05:27:31;15.20;99.90
23751;DHT22;12055;52.098;13.176;2022-07-29T05:29:56;15.40;99.90
23751;DHT22;12055;52.098;13.176;2022-07-29T05:32:22;15.60;99.90
23751;DHT22;12055;52.098;13.176;2022-07-29T05:34:47;15.90;99.90
23751;DHT22;12055;52.098;13.176;2022-07-29T05:37:13;16.20;99.90
23751;DHT22;12055;52.098;13.176;2022-07-29T05:39:39;16.30;99.90
23751;DHT22;12055;52.098;13.176;2022-07-29T05:42:09;16.60;99.90
23751;DHT22;12055;52.098;13.176;2022-07-29T05:44:39;16.70;99.90
23751;DHT22;12055;52.098;13.176;2022-07-29T05:47:05;17.10;99.90
23751;DHT22;12055;52.098;13.176;2022-07-29T05:49:31;17.40;99.90
23751;DHT22;12055;52.098;13.176;2022-07-29T05:51:57;17.80;99.90
23751;DHT22;12055;52.098;13.176;2022-07-29T05:54:23;17.90;99.90
23751;DHT22;12055;52.098;13.176;2022-07-29T05:56:49;18.10;99.90
23751;DHT22;12055;52.098;13.176;2022-07-29T05:59:14;18.50;99.90
23751;DHT22;12055;52.098;13.176;2022-07-29T06:01:40;18.50;99.90
23751;DHT22;12055;52.098;13.176;2022-07-29T06:04:06;18.20;99.90
23751;DHT22;12055;52.098;13.176;2022-07-29T06:06:32;18.20;99.90
23751;DHT22;12055;52.098;13.176;2022-07-29T06:08:59;18.00;99.90
23751;DHT22;12055;52.098;13.176;2022-07-29T06:11:24;18.00;99.90
23751;DHT22;12055;52.098;13.176;2022-07-29T06:13:50;18.00;99.90
23751;DHT22;12055;52.098;13.176;2022-07-29T06:16:16;18.00;99.90
23751;DHT22;12055;52.098;13.176;2022-07-29T06:18:41;18.00;99.90
23751;DHT22;12055;52.098;13.176;2022-07-29T06:21:08;18.10;99.90
23751;DHT22;12055;52.098;13.176;2022-07-29T06:23:35;18.30;99.90
23751;DHT22;12055;52.098;13.176;2022-07-29T06:26:01;18.50;99.90
23751;DHT22;12055;52.098;13.176;2022-07-29T06:28:26;18.60;99.90
23751;DHT22;12055;52.098;13.176;2022-07-29T06:30:52;18.60;99.90
23751;DHT22;12055;52.098;13.176;2022-07-29T06:33:18;18.60;99.90
23751;DHT22;12055;52.098;13.176;2022-07-29T06:35:44;18.70;99.90
23751;DHT22;12055;52.098;13.176;2022-07-29T06:38:10;18.50;99.90
23751;DHT22;12055;52.098;13.176;2022-07-29T06:40:36;18.20;99.90
23751;DHT22;12055;52.098;13.176;2022-07-29T06:43:20;18.40;99.90
23751;DHT22;12055;52.098;13.176;2022-07-29T06:45:46;18.70;99.90
23751;DHT22;12055;52.098;13.176;2022-07-29T06:48:11;19.00;99.90
23751;DHT22;12055;52.098;13.176;2022-07-29T06:50:37;19.20;99.90
23751;DHT22;12055;52.098;13.176;2022-07-29T06:53:03;19.40;99.90
23751;DHT22;12055;52.098;13.176;2022-07-29T06:55:29;19.60;99.90
23751;DHT22;12055;52.098;13.176;2022-07-29T06:57:54;19.60;99.90
23751;DHT22;12055;52.098;13.176;2022-07-29T07:00:20;19.70;99.90
23751;DHT22;12055;52.098;13.176;2022-07-29T07:02:45;19.70;99.90
23751;DHT22;12055;52.098;13.176;2022-07-29T07:05:11;19.80;99.90
23751;DHT22;12055;52.098;13.176;2022-07-29T07:07:36;20.00;99.90
23751;DHT22;12055;52.098;13.176;2022-07-29T07:10:02;20.10;99.90
23751;DHT22;12055;52.098;13.176;2022-07-29T07:12:27;20.60;99.90
23751;DHT22;12055;52.098;13.176;2022-07-29T07:14:53;21.50;99.90
23751;DHT22;12055;52.098;13.176;2022-07-29T07:17:18;22.30;99.90
23751;DHT22;12055;52.098;13.176;2022-07-29T07:19:44;23.10;99.90
23751;DHT22;12055;52.098;13.176;2022-07-29T07:22:10;23.80;99.90
23751;DHT22;12055;52.098;13.176;2022-07-29T07:24:35;24.50;99.90
23751;DHT22;12055;52.098;13.176;2022-07-29T07:27:01;24.60;99.90
23751;DHT22;12055;52.098;13.176;2022-07-29T07:29:27;24.40;99.90
23751;DHT22;12055;52.098;13.176;2022-07-29T07:31:58;24.60;99.90
23751;DHT22;12055;52.098;13.176;2022-07-29T07:34:27;24.40;99.90
23751;DHT22;12055;52.098;13.176;2022-07-29T07:36:52;24.50;99.90
23751;DHT22;12055;52.098;13.176;2022-07-29T07:39:18;24.80;99.90
23751;DHT22;12055;52.098;13.176;2022-07-29T07:41:43;24.20;99.90
23751;DHT22;12055;52.098;13.176;2022-07-29T07:44:09;24.40;99.90
23751;DHT22;12055;52.098;13.176;2022-07-29T07:46:34;24.90;99.90
23751;DHT22;12055;52.098;13.176;2022-07-29T07:49:00;25.70;99.90
23751;DHT22;12055;52.098;13.176;2022-07-29T07:51:25;26.40;99.90
23751;DHT22;12055;52.098;13.176;2022-07-29T07:53:51;26.80;99.90
23751;DHT22;12055;52.098;13.176;2022-07-29T07:56:16;27.10;99.90
23751;DHT22;12055;52.098;13.176;2022-07-29T07:58:42;26.30;99.90
23751;DHT22;12055;52.098;13.176;2022-07-29T08:01:08;25.20;99.90
23751;DHT22;12055;52.098;13.176;2022-07-29T08:03:34;24.60;99.90
23751;DHT22;12055;52.098;13.176;2022-07-29T08:06:00;24.30;99.90
23751;DHT22;12055;52.098;13.176;2022-07-29T08:08:25;24.00;99.90
23751;DHT22;12055;52.098;13.176;2022-07-29T08:10:51;23.70;99.90
23751;DHT22;12055;52.098;13.176;2022-07-29T08:13:26;23.60;99.90
23751;DHT22;12055;52.098;13.176;2022-07-29T08:15:53;23.40;99.90
23751;DHT22;12055;52.098;13.176;2022-07-29T08:18:37;23.20;99.90
23751;DHT22;12055;52.098;13.176;2022-07-29T08:21:03;23.20;99.90
23751;DHT22;12055;52.098;13.176;2022-07-29T08:23:28;22.60;99.90
23751;DHT22;12055;52.098;13.176;2022-07-29T08:26:04;22.60;99.90
23751;DHT22;12055;52.098;13.176;2022-07-29T08:28:29;22.70;99.90
23751;DHT22;12055;52.098;13.176;2022-07-29T08:30:54;22.80;99.90
23751;DHT22;12055;52.098;13.176;2022-07-29T08:33:20;23.00;99.90
23751;DHT22;12055;52.098;13.176;2022-07-29T08:35:45;23.20;99.90
23751;DHT22;12055;52.098;13.176;2022-07-29T08:38:11;23.30;99.90
23751;DHT22;12055;52.098;13.176;2022-07-29T08:40:36;23.70;99.90
23751;DHT22;12055;52.098;13.176;2022-07-29T08:43:07;24.20;99.90
23751;DHT22;12055;52.098;13.176;2022-07-29T08:45:44;24.80;99.90
23751;DHT22;12055;52.098;13.176;2022-07-29T08:48:12;24.80;99.90
23751;DHT22;12055;52.098;13.176;2022-07-29T08:50:38;24.60;99.90
23751;DHT22;12055;52.098;13.176;2022-07-29T08:53:06;24.10;99.90
23751;DHT22;12055;52.098;13.176;2022-07-29T08:55:32;24.70;99.90
23751;DHT22;12055;52.098;13.176;2022-07-29T08:57:58;25.30;99.90
23751;DHT22;12055;52.098;13.176;2022-07-29T09:00:25;25.50;99.90
23751;DHT22;12055;52.098;13.176;2022-07-29T09:02:56;25.70;99.90
23751;DHT22;12055;52.098;13.176;2022-07-29T09:05:23;25.90;99.90
23751;DHT22;12055;52.098;13.176;2022-07-29T09:07:50;25.40;99.90
23751;DHT22;12055;52.098;13.176;2022-07-29T09:10:15;25.10;99.90
23751;DHT22;12055;52.098;13.176;2022-07-29T09:12:41;25.30;99.90
23751;DHT22;12055;52.098;13.176;2022-07-29T09:15:07;25.70;99.90
23751;DHT22;12055;52.098;13.176;2022-07-29T09:17:43;26.00;99.90
23751;DHT22;12055;52.098;13.176;2022-07-29T09:20:12;26.00;99.90
23751;DHT22;12055;52.098;13.176;2022-07-29T09:22:37;26.20;99.90
23751;DHT22;12055;52.098;13.176;2022-07-29T09:25:03;26.40;99.90
23751;DHT22;12055;52.098;13.176;2022-07-29T09:27:29;26.60;99.90
23751;DHT22;12055;52.098;13.176;2022-07-29T09:30:02;26.90;99.90
23751;DHT22;12055;52.098;13.176;2022-07-29T09:32:28;26.80;99.90
23751;DHT22;12055;52.098;13.176;2022-07-29T09:35:18;27.00;99.90
23751;DHT22;12055;52.098;13.176;2022-07-29T09:37:44;27.10;99.90
23751;DHT22;12055;52.098;13.176;2022-07-29T09:40:14;27.00;99.90
23751;DHT22;12055;52.098;13.176;2022-07-29T09:42:41;27.40;99.90
23751;DHT22;12055;52.098;13.176;2022-07-29T09:45:07;27.20;99.90
23751;DHT22;12055;52.098;13.176;2022-07-29T09:47:46;26.90;99.70
23751;DHT22;12055;52.098;13.176;2022-07-29T09:50:14;26.90;99.90
23751;DHT22;12055;52.098;13.176;2022-07-29T09:52:48;27.00;99.90
23751;DHT22;12055;52.098;13.176;2022-07-29T09:55:14;27.20;99.90
23751;DHT22;12055;52.098;13.176;2022-07-29T09:57:40;27.40;99.90
23751;DHT22;12055;52.098;13.176;2022-07-29T10:02:36;27.90;99.50
23751;DHT22;12055;52.098;13.176;2022-07-29T10:05:25;28.10;98.00
23751;DHT22;12055;52.098;13.176;2022-07-29T10:07:55;28.60;99.00
23751;DHT22;12055;52.098;13.176;2022-07-29T10:10:32;28.80;97.10
23751;DHT22;12055;52.098;13.176;2022-07-29T10:13:00;28.80;97.30
23751;DHT22;12055;52.098;13.176;2022-07-29T10:15:29;29.40;97.80
23751;DHT22;12055;52.098;13.176;2022-07-29T10:17:56;29.80;96.70
23751;DHT22;12055;52.098;13.176;2022-07-29T10:20:23;29.90;95.60
23751;DHT22;12055;52.098;13.176;2022-07-29T10:22:49;29.80;95.70
23751;DHT22;12055;52.098;13.176;2022-07-29T10:25:16;29.20;96.80
23751;DHT22;12055;52.098;13.176;2022-07-29T10:27:42;29.00;95.30
23751;DHT22;12055;52.098;13.176;2022-07-29T10:30:09;29.30;96.40
23751;DHT22;12055;52.098;13.176;2022-07-29T10:33:06;29.70;96.20
23751;DHT22;12055;52.098;13.176;2022-07-29T10:35:54;30.00;95.30
23751;DHT22;12055;52.098;13.176;2022-07-29T10:38:47;29.40;94.40
23751;DHT22;12055;52.098;13.176;2022-07-29T10:41:30;29.50;95.30
23751;DHT22;12055;52.098;13.176;2022-07-29T10:44:16;29.90;94.30
23751;DHT22;12055;52.098;13.176;2022-07-29T10:46:42;30.30;94.60
23751;DHT22;12055;52.098;13.176;2022-07-29T10:49:19;30.20;93.30
23751;DHT22;12055;52.098;13.176;2022-07-29T10:52:04;30.60;93.70
23751;DHT22;12055;52.098;13.176;2022-07-29T10:59:37;30.70;93.30
23751;DHT22;12055;52.098;13.176;2022-07-29T11:07:23;30.40;92.50
23751;DHT22;12055;52.098;13.176;2022-07-29T11:15:10;29.20;93.10
23751;DHT22;12055;52.098;13.176;2022-07-29T11:18:06;29.10;92.90
23751;DHT22;12055;52.098;13.176;2022-07-29T11:20:47;29.60;93.10
23751;DHT22;12055;52.098;13.176;2022-07-29T11:25:45;30.30;92.90
23751;DHT22;12055;52.098;13.176;2022-07-29T11:28:16;30.40;92.60
23751;DHT22;12055;52.098;13.176;2022-07-29T11:30:51;30.70;92.70
23751;DHT22;12055;52.098;13.176;2022-07-29T11:33:30;31.00;93.50
23751;DHT22;12055;52.098;13.176;2022-07-29T11:36:13;31.40;91.70
23751;DHT22;12055;52.098;13.176;2022-07-29T11:38:38;31.70;92.70
23751;DHT22;12055;52.098;13.176;2022-07-29T11:41:24;31.50;91.10
23751;DHT22;12055;52.098;13.176;2022-07-29T11:43:51;31.70;90.00
23751;DHT22;12055;52.098;13.176;2022-07-29T11:49:09;31.70;89.50
23751;DHT22;12055;52.098;13.176;2022-07-29T11:51:36;31.80;89.30
23751;DHT22;12055;52.098;13.176;2022-07-29T11:54:02;31.70;85.70
23751;DHT22;12055;52.098;13.176;2022-07-29T11:56:31;31.60;87.70
23751;DHT22;12055;52.098;13.176;2022-07-29T11:59:07;31.60;87.50
23751;DHT22;12055;52.098;13.176;2022-07-29T12:01:34;31.50;86.60
23751;DHT22;12055;52.098;13.176;2022-07-29T12:04:07;31.20;87.20
23751;DHT22;12055;52.098;13.176;2022-07-29T12:06:35;30.80;85.80
23751;DHT22;12055;52.098;13.176;2022-07-29T12:09:07;30.60;86.40
23751;DHT22;12055;52.098;13.176;2022-07-29T12:11:32;30.50;86.80
23751;DHT22;12055;52.098;13.176;2022-07-29T12:13:58;30.40;87.80
23751;DHT22;12055;52.098;13.176;2022-07-29T12:16:37;30.70;88.00
23751;DHT22;12055;52.098;13.176;2022-07-29T12:19:03;31.10;85.30
23751;DHT22;12055;52.098;13.176;2022-07-29T12:21:43;30.90;87.00
23751;DHT22;12055;52.098;13.176;2022-07-29T12:24:08;30.60;86.90
23751;DHT22;12055;52.098;13.176;2022-07-29T12:26:34;30.80;85.90
23751;DHT22;12055;52.098;13.176;2022-07-29T12:28:59;31.10;84.30
23751;DHT22;12055;52.098;13.176;2022-07-29T12:31:25;31.10;84.60
23751;DHT22;12055;52.098;13.176;2022-07-29T12:33:54;31.10;83.60
23751;DHT22;12055;52.098;13.176;2022-07-29T12:36:19;31.40;83.40
23751;DHT22;12055;52.098;13.176;2022-07-29T12:38:45;31.20;82.60
23751;DHT22;12055;52.098;13.176;2022-07-29T12:41:11;31.50;85.70
23751;DHT22;12055;52.098;13.176;2022-07-29T12:43:37;32.00;83.10
23751;DHT22;12055;52.098;13.176;2022-07-29T12:46:14;32.40;82.60
23751;DHT22;12055;52.098;13.176;2022-07-29T12:48:42;32.30;79.70
23751;DHT22;12055;52.098;13.176;2022-07-29T12:51:08;32.30;79.30
23751;DHT22;12055;52.098;13.176;2022-07-29T12:53:36;32.20;80.00
23751;DHT22;12055;52.098;13.176;2022-07-29T12:56:02;32.20;79.40
23751;DHT22;12055;52.098;13.176;2022-07-29T12:58:36;32.60;80.90
23751;DHT22;12055;52.098;13.176;2022-07-29T13:01:18;32.60;78.80
23751;DHT22;12055;52.098;13.176;2022-07-29T13:03:56;32.50;76.20
23751;DHT22;12055;52.098;13.176;2022-07-29T13:06:44;33.00;79.30
23751;DHT22;12055;52.098;13.176;2022-07-29T13:11:48;33.10;75.90
23751;DHT22;12055;52.098;13.176;2022-07-29T13:14:33;33.00;76.50
23751;DHT22;12055;52.098;13.176;2022-07-29T13:17:00;33.40;75.30
23751;DHT22;12055;52.098;13.176;2022-07-29T13:22:01;32.90;79.10
23751;DHT22;12055;52.098;13.176;2022-07-29T13:24:27;33.60;74.60
23751;DHT22;12055;52.098;13.176;2022-07-29T13:26:52;34.00;73.30
23751;DHT22;12055;52.098;13.176;2022-07-29T13:29:17;35.10;74.50
23751;DHT22;12055;52.098;13.176;2022-07-29T13:31:43;35.60;69.90
23751;DHT22;12055;52.098;13.176;2022-07-29T13:34:09;36.40;71.10
23751;DHT22;12055;52.098;13.176;2022-07-29T13:36:34;36.80;72.00
23751;DHT22;12055;52.098;13.176;2022-07-29T13:39:00;36.20;67.90
23751;DHT22;12055;52.098;13.176;2022-07-29T13:41:28;35.90;69.90
23751;DHT22;12055;52.098;13.176;2022-07-29T13:43:53;36.10;69.30
23751;DHT22;12055;52.098;13.176;2022-07-29T13:46:19;36.00;68.00
23751;DHT22;12055;52.098;13.176;2022-07-29T13:48:44;36.00;65.20
23751;DHT22;12055;52.098;13.176;2022-07-29T13:51:10;36.90;70.60
23751;DHT22;12055;52.098;13.176;2022-07-29T13:53:35;37.50;64.60
23751;DHT22;12055;52.098;13.176;2022-07-29T13:56:01;35.90;64.10
23751;DHT22;12055;52.098;13.176;2022-07-29T13:58:26;35.10;66.60
23751;DHT22;12055;52.098;13.176;2022-07-29T14:00:52;34.20;67.50
23751;DHT22;12055;52.098;13.176;2022-07-29T14:03:18;33.60;70.50
23751;DHT22;12055;52.098;13.176;2022-07-29T14:05:45;32.80;69.30
23751;DHT22;12055;52.098;13.176;2022-07-29T14:08:10;32.40;70.40
23751;DHT22;12055;52.098;13.176;2022-07-29T14:10:36;32.30;69.40
23751;DHT22;12055;52.098;13.176;2022-07-29T14:13:01;32.60;69.80
23751;DHT22;12055;52.098;13.176;2022-07-29T14:15:27;34.20;71.10
23751;DHT22;12055;52.098;13.176;2022-07-29T14:17:52;35.90;71.60
23751;DHT22;12055;52.098;13.176;2022-07-29T14:20:18;36.50;67.20
23751;DHT22;12055;52.098;13.176;2022-07-29T14:22:44;37.00;63.60
23751;DHT22;12055;52.098;13.176;2022-07-29T14:25:09;37.10;64.70
23751;DHT22;12055;52.098;13.176;2022-07-29T14:27:35;37.10;65.00
23751;DHT22;12055;52.098;13.176;2022-07-29T14:30:00;37.20;64.10
23751;DHT22;12055;52.098;13.176;2022-07-29T14:32:26;37.30;62.00
23751;DHT22;12055;52.098;13.176;2022-07-29T14:34:51;36.90;59.80
23751;DHT22;12055;52.098;13.176;2022-07-29T14:37:17;36.60;60.20
23751;DHT22;12055;52.098;13.176;2022-07-29T14:39:43;36.60;59.80
23751;DHT22;12055;52.098;13.176;2022-07-29T14:42:10;37.30;60.90
23751;DHT22;12055;52.098;13.176;2022-07-29T14:44:35;37.60;61.80
23751;DHT22;12055;52.098;13.176;2022-07-29T14:47:01;38.10;59.90
23751;DHT22;12055;52.098;13.176;2022-07-29T14:49:27;37.90;60.40
23751;DHT22;12055;52.098;13.176;2022-07-29T14:51:52;38.50;58.10
23751;DHT22;12055;52.098;13.176;2022-07-29T14:54:18;39.30;60.20
23751;DHT22;12055;52.098;13.176;2022-07-29T14:56:43;38.60;57.70
23751;DHT22;12055;52.098;13.176;2022-07-29T14:59:09;36.60;58.40
23751;DHT22;12055;52.098;13.176;2022-07-29T15:01:34;35.20;61.00
23751;DHT22;12055;52.098;13.176;2022-07-29T15:04:00;34.10;60.70
23751;DHT22;12055;52.098;13.176;2022-07-29T15:06:26;33.20;62.30
23751;DHT22;12055;52.098;13.176;2022-07-29T15:08:52;32.90;67.70
23751;DHT22;12055;52.098;13.176;2022-07-29T15:11:17;33.20;65.80
23751;DHT22;12055;52.098;13.176;2022-07-29T15:13:42;34.80;66.60
23751;DHT22;12055;52.098;13.176;2022-07-29T15:16:08;36.40;63.20
23751;DHT22;12055;52.098;13.176;2022-07-29T15:18:34;37.50;58.80
23751;DHT22;12055;52.098;13.176;2022-07-29T15:21:00;38.60;60.80
23751;DHT22;12055;52.098;13.176;2022-07-29T15:23:27;39.20;55.50
23751;DHT22;12055;52.098;13.176;2022-07-29T15:25:52;38.90;56.00
23751;DHT22;12055;52.098;13.176;2022-07-29T15:28:18;38.50;55.60
23751;DHT22;12055;52.098;13.176;2022-07-29T15:30:43;38.90;56.40
23751;DHT22;12055;52.098;13.176;2022-07-29T15:33:09;38.40;60.40
23751;DHT22;12055;52.098;13.176;2022-07-29T15:35:35;38.00;55.40
23751;DHT22;12055;52.098;13.176;2022-07-29T15:38:01;37.10;54.80
23751;DHT22;12055;52.098;13.176;2022-07-29T15:40:26;37.10;57.30
23751;DHT22;12055;52.098;13.176;2022-07-29T15:42:52;37.40;53.70
23751;DHT22;12055;52.098;13.176;2022-07-29T15:45:17;38.30;54.60
23751;DHT22;12055;52.098;13.176;2022-07-29T15:47:43;38.10;52.60
23751;DHT22;12055;52.098;13.176;2022-07-29T15:50:08;38.50;57.50
23751;DHT22;12055;52.098;13.176;2022-07-29T15:52:39;38.00;55.10
23751;DHT22;12055;52.098;13.176;2022-07-29T15:55:04;37.20;54.80